Terminal Aerodrome Forecast
Issued by NWS

Home | Current Version | Previous Version | Graphics & Text | Print | Product List | Glossary Off
Versions: 1 2 3 4 5 6 7 8 9 10 11 12 13 14 15 16 17 18 19

000
FTUS43 KGRB 301900 AAA
TAFATW
TAF AMD
KATW 301944Z 3020/3118 28009KT P6SM VCSH SCT020 BKN050
      TEMPO 3020/3022 4SM SHRA BKN020
     FM302200 33007KT P6SM VCSH SCT020 BKN050
     FM310200 34004KT P6SM BKN035
     FM310500 VRB03KT 4SM BR SCT007 SCT035
      TEMPO 3108/3112 3/4SM BR BKN009 OVC035
     FM311300 VRB03KT 5SM BR BKN012
     FM311600 17005KT P6SM SCT025=

USA.gov is the U.S. government's official web portal to all federal, state and local government web resources and services.